createdAt,value
2023-02-04T00:01:40.304Z,2.07
2023-02-04T00:06:45.287Z,5.00
2023-02-04T00:11:48.933Z,1.87
2023-02-04T00:16:52.586Z,2.20
2023-02-04T00:21:57.814Z,1.87
2023-02-04T00:27:01.506Z,2.23
2023-02-04T00:32:05.573Z,3.00
2023-02-04T00:37:10.797Z,4.07
2023-02-04T00:42:15.008Z,3.20
2023-02-04T00:47:18.584Z,2.33
2023-02-04T00:52:23.691Z,3.60
2023-02-04T00:57:27.439Z,3.47
2023-02-04T01:02:31.116Z,3.50
2023-02-04T01:07:36.412Z,3.67
2023-02-04T01:12:40.029Z,2.13
2023-02-04T01:17:43.891Z,1.80
2023-02-04T01:22:48.899Z,2.43
2023-02-04T01:27:52.520Z,3.07
2023-02-04T01:32:56.051Z,1.57
2023-02-04T01:38:01.140Z,3.77
2023-02-04T01:43:06.791Z,2.77
2023-02-04T01:48:12.518Z,2.53
2023-02-04T01:53:21.563Z,5.27
2023-02-04T01:58:25.371Z,2.60
2023-02-04T02:03:29.347Z,1.30
2023-02-04T02:08:34.290Z,1.77
2023-02-04T02:13:37.885Z,4.77
2023-02-04T02:18:41.971Z,3.30
2023-02-04T02:23:50.549Z,2.30
2023-02-04T02:28:55.921Z,3.10
2023-02-04T02:33:59.497Z,3.20
2023-02-04T02:39:04.614Z,3.53
2023-02-04T02:44:08.636Z,3.60
2023-02-04T02:49:15.655Z,2.73
2023-02-04T02:54:24.219Z,2.70
2023-02-04T02:59:30.334Z,2.33
2023-02-04T03:04:38.396Z,1.83
2023-02-04T03:09:44.216Z,4.90
2023-02-04T03:14:47.919Z,2.33
2023-02-04T03:19:51.760Z,2.63
2023-02-04T03:24:58.428Z,3.63
2023-02-04T03:30:02.219Z,1.70
2023-02-04T03:35:06.890Z,3.37
2023-02-04T03:40:13.219Z,1.20
2023-02-04T03:45:17.009Z,1.97
2023-02-04T03:50:20.610Z,2.53
2023-02-04T03:55:26.808Z,3.23
2023-02-04T04:00:32.346Z,2.53
2023-02-04T04:05:36.107Z,2.50
2023-02-04T04:10:42.025Z,3.20
2023-02-04T04:15:45.860Z,2.63
2023-02-04T04:20:49.458Z,2.03
2023-02-04T04:25:54.461Z,1.60
2023-02-04T04:30:58.185Z,2.27
2023-02-04T04:36:01.820Z,1.90
2023-02-04T04:41:06.813Z,3.97
2023-02-04T04:46:10.335Z,1.70
2023-02-04T04:51:13.909Z,3.03
2023-02-04T04:56:19.138Z,1.43
2023-02-04T05:01:22.886Z,4.27
2023-02-04T05:06:26.657Z,1.37
2023-02-04T05:11:31.690Z,1.60
2023-02-04T05:16:35.242Z,1.20
2023-02-04T05:21:38.813Z,2.00
2023-02-04T05:26:43.780Z,2.50
2023-02-04T05:31:47.436Z,2.07
2023-02-04T05:36:50.983Z,1.80
2023-02-04T05:41:55.926Z,1.20
2023-02-04T05:46:59.476Z,1.73
2023-02-04T05:52:03.077Z,2.30
2023-02-04T05:57:08.139Z,2.47
2023-02-04T06:02:11.755Z,2.50
2023-02-04T06:07:15.340Z,3.87
2023-02-04T06:12:20.808Z,3.13
2023-02-04T06:17:24.452Z,1.70
2023-02-04T06:22:27.996Z,2.40
2023-02-04T06:27:32.898Z,3.17
2023-02-04T06:32:36.519Z,3.00
2023-02-04T06:37:40.158Z,1.53
2023-02-04T06:42:45.153Z,1.83
2023-02-04T06:47:48.713Z,2.63
2023-02-04T06:52:52.832Z,3.10
2023-02-04T06:57:58.271Z,1.97
2023-02-04T07:03:01.911Z,2.07
2023-02-04T07:08:06.088Z,2.57
2023-02-04T07:13:11.027Z,2.23
2023-02-04T07:18:18.126Z,1.33
2023-02-04T07:23:21.653Z,1.57
2023-02-04T07:28:27.372Z,1.77
2023-02-04T07:33:30.948Z,1.97
2023-02-04T07:38:34.647Z,3.83
2023-02-04T07:43:39.564Z,0.83
2023-02-04T07:48:43.490Z,1.80
2023-02-04T07:53:47.028Z,0.70
2023-02-04T07:58:52.029Z,2.83
2023-02-04T08:03:56.008Z,1.70
2023-02-04T08:08:59.479Z,1.37
2023-02-04T08:14:04.672Z,2.23
2023-02-04T08:19:08.253Z,2.23
2023-02-04T08:24:11.901Z,2.33
2023-02-04T08:29:16.845Z,2.27
2023-02-04T08:34:20.511Z,1.70
2023-02-04T08:39:24.092Z,2.93
2023-02-04T08:44:28.978Z,1.47
2023-02-04T08:49:32.633Z,1.83
2023-02-04T08:54:36.835Z,1.50
2023-02-04T08:59:41.929Z,1.97
2023-02-04T09:04:45.478Z,2.30
2023-02-04T09:09:49.326Z,2.63
2023-02-04T09:14:54.884Z,2.93
2023-02-04T09:19:58.435Z,2.20
2023-02-04T09:25:02.342Z,3.53
2023-02-04T09:30:08.241Z,3.60
2023-02-04T09:35:11.791Z,3.53
2023-02-04T09:40:17.089Z,3.67
2023-02-04T09:45:24.527Z,3.73
2023-02-04T09:50:32.140Z,3.43
2023-02-04T09:55:39.150Z,3.77
2023-02-04T10:00:44.597Z,7.03
2023-02-04T10:05:49.126Z,5.27
2023-02-04T10:10:52.811Z,2.93
2023-02-04T10:15:58.045Z,4.77
2023-02-04T10:21:13.931Z,3.93
2023-02-04T10:26:18.689Z,3.60
2023-02-04T10:31:36.051Z,2.80
2023-02-04T10:36:40.333Z,2.43
2023-02-04T10:41:51.153Z,3.40
2023-02-04T10:47:02.305Z,4.63
2023-02-04T10:52:17.259Z,4.70
2023-02-04T10:57:23.660Z,3.63
2023-02-04T11:02:41.793Z,2.90
2023-02-04T11:07:46.494Z,3.03
2023-02-04T11:13:02.297Z,2.90
2023-02-04T11:18:09.024Z,3.10
2023-02-04T11:23:33.237Z,4.27
2023-02-04T11:28:52.171Z,3.27
2023-02-04T11:34:11.688Z,2.63
2023-02-04T11:39:18.646Z,2.73
2023-02-04T11:44:23.069Z,4.80
2023-02-04T11:49:28.713Z,3.80
2023-02-04T11:54:32.244Z,2.47
2023-02-04T11:59:35.825Z,2.53
2023-02-04T12:04:40.834Z,2.07
2023-02-04T12:09:50.342Z,3.77
2023-02-04T12:15:04.869Z,3.47
2023-02-04T12:20:11.162Z,2.57
2023-02-04T12:25:17.069Z,2.77
2023-02-04T12:30:21.089Z,3.53
2023-02-04T12:35:26.019Z,4.67
2023-02-04T12:40:29.843Z,3.57
2023-02-04T12:45:33.924Z,3.77
2023-02-04T12:50:39.683Z,4.80
2023-02-04T12:55:43.274Z,3.80
2023-02-04T13:00:46.878Z,2.90
2023-02-04T13:05:51.921Z,4.17
2023-02-04T13:10:55.536Z,2.90
2023-02-04T13:15:59.170Z,3.33
2023-02-04T13:21:04.175Z,1.97
2023-02-04T13:26:08.859Z,2.43
2023-02-04T13:31:13.348Z,4.93
2023-02-04T13:36:18.384Z,4.37
2023-02-04T13:41:22.006Z,4.53
2023-02-04T13:46:25.877Z,4.20
2023-02-04T13:51:31.185Z,3.90
2023-02-04T13:56:35.009Z,2.63
2023-02-04T14:01:39.028Z,4.67
2023-02-04T14:06:44.381Z,2.73
2023-02-04T14:11:49.332Z,2.63
2023-02-04T14:16:53.018Z,2.17
2023-02-04T14:21:58.524Z,2.50
2023-02-04T14:27:07.207Z,2.63
2023-02-04T14:32:10.847Z,2.10
2023-02-04T14:37:15.894Z,2.87
2023-02-04T14:42:19.491Z,2.93
2023-02-04T14:47:23.130Z,2.73
2023-02-04T14:52:28.171Z,1.67
2023-02-04T14:57:32.010Z,2.60
2023-02-04T15:02:35.645Z,3.10
2023-02-04T15:07:40.720Z,3.00
2023-02-04T15:12:44.331Z,2.00
2023-02-04T15:17:48.209Z,3.70
2023-02-04T15:22:56.211Z,3.40
2023-02-04T15:27:59.888Z,3.43
2023-02-04T15:33:03.512Z,2.10
2023-02-04T15:38:08.912Z,3.37
2023-02-04T15:43:12.537Z,1.57
2023-02-04T15:48:16.576Z,2.63
2023-02-04T15:53:21.782Z,3.47
2023-02-04T15:58:25.354Z,2.30
2023-02-04T16:03:28.956Z,2.47
2023-02-04T16:08:34.168Z,1.70
2023-02-04T16:13:38.053Z,3.50
2023-02-04T16:18:41.635Z,2.93
2023-02-04T16:23:47.178Z,2.07
2023-02-04T16:28:50.756Z,3.37
2023-02-04T16:33:54.351Z,1.77
2023-02-04T16:39:00.166Z,3.17
2023-02-04T16:44:03.896Z,2.97
2023-02-04T16:49:07.444Z,2.07
2023-02-04T16:54:12.415Z,1.73
2023-02-04T16:59:16.398Z,2.20
2023-02-04T17:04:20.049Z,1.90
2023-02-04T17:09:25.065Z,2.07
2023-02-04T17:14:28.897Z,2.40
2023-02-04T17:19:32.394Z,2.17
2023-02-04T17:24:43.414Z,3.23
2023-02-04T17:29:46.999Z,3.70
2023-02-04T17:34:54.192Z,2.63
2023-02-04T17:39:59.212Z,2.17
2023-02-04T17:45:02.814Z,2.00
2023-02-04T17:50:08.040Z,1.70
2023-02-04T17:55:20.299Z,3.73
2023-02-04T18:00:26.069Z,2.50
2023-02-04T18:05:30.680Z,2.03
2023-02-04T18:10:39.309Z,2.00
2023-02-04T18:15:47.180Z,2.13
2023-02-04T18:20:58.781Z,2.87
2023-02-04T18:26:14.665Z,2.77
2023-02-04T18:31:34.932Z,1.80
2023-02-04T18:36:38.921Z,3.93
2023-02-04T18:41:45.609Z,3.10
2023-02-04T18:46:49.381Z,3.13
2023-02-04T18:51:53.465Z,3.37
2023-02-04T18:57:17.311Z,3.10
2023-02-04T19:02:36.485Z,5.23
2023-02-04T19:07:40.180Z,4.23
2023-02-04T19:12:45.258Z,4.03
2023-02-04T19:17:48.958Z,3.73
2023-02-04T19:22:54.756Z,2.30
2023-02-04T19:28:02.004Z,3.50
2023-02-04T19:33:17.172Z,3.50
2023-02-04T19:38:40.546Z,5.23
2023-02-04T19:43:45.571Z,4.87
2023-02-04T19:48:49.306Z,5.33
2023-02-04T19:53:59.124Z,6.17
2023-02-04T19:59:23.407Z,6.33
2023-02-04T20:04:30.461Z,5.47
2023-02-04T20:09:35.692Z,3.77
2023-02-04T20:14:52.402Z,5.13
2023-02-04T20:19:56.860Z,4.73
2023-02-04T20:25:22.697Z,4.60
2023-02-04T20:30:30.570Z,3.33
2023-02-04T20:36:19.778Z,5.67
2023-02-04T20:41:23.913Z,4.77
2023-02-04T20:46:29.003Z,4.80
2023-02-04T20:51:35.802Z,5.23
2023-02-04T20:56:40.971Z,5.93
2023-02-04T21:01:48.516Z,5.10
2023-02-04T21:06:54.045Z,5.43
2023-02-04T21:11:58.912Z,4.80
2023-02-04T21:17:04.283Z,7.10
2023-02-04T21:22:07.937Z,6.77
2023-02-04T21:27:11.596Z,6.23
2023-02-04T21:32:16.845Z,6.43
2023-02-04T21:37:20.442Z,7.97
2023-02-04T21:42:24.102Z,7.17
2023-02-04T21:47:29.346Z,5.83
2023-02-04T21:52:32.992Z,8.87
2023-02-04T21:57:36.865Z,7.70
2023-02-04T22:02:42.035Z,7.07
2023-02-04T22:07:46.058Z,4.40
2023-02-04T22:12:49.776Z,8.43
2023-02-04T22:17:55.085Z,7.67
2023-02-04T22:22:59.115Z,12.33
2023-02-04T22:28:02.726Z,6.90
2023-02-04T22:33:07.738Z,8.90
2023-02-04T22:38:11.290Z,5.77
2023-02-04T22:43:15.235Z,6.27
2023-02-04T22:48:20.322Z,7.90
2023-02-04T22:53:23.952Z,5.73
2023-02-04T22:58:27.533Z,4.13
2023-02-04T23:03:32.480Z,4.43
2023-02-04T23:08:36.394Z,5.97
2023-02-04T23:13:40.040Z,5.20
2023-02-04T23:18:45.025Z,4.83
2023-02-04T23:23:48.980Z,6.77
2023-02-04T23:28:52.580Z,4.40
2023-02-04T23:33:57.508Z,7.53
2023-02-04T23:39:01.106Z,5.60
2023-02-04T23:44:04.822Z,5.83
2023-02-04T23:49:10.776Z,5.87
2023-02-04T23:54:14.440Z,4.03
2023-02-04T23:59:18.782Z,3.97
